Time;durP1;ratioP1;P1;durP2;ratioP2;P2;SDS_P1;SDS_P2;PMS_P1;PMS_P2;Temp;Humidity;BMP_temperature;BMP_pressure;BME280_temperature;BME280_humidity;BME280_pressure;Samples;Min_cycle;Max_cycle;Signal;HPM_P1;HPM_P2
2023/07/05 00:02:10;;;;;;;7.13;2.50;;;;;;;13.82;100.00;101521.63;4970751;28;20190;-75
2023/07/05 00:04:36;;;;;;;8.23;3.37;;;;;;;14.11;100.00;101576.25;4978278;28;20199;-75
2023/07/05 00:07:01;;;;;;;4.83;1.77;;;;;;;14.73;100.00;101676.91;4973975;28;20446;-75
2023/07/05 00:09:27;;;;;;;10.10;2.43;;;;;;;14.80;100.00;101666.91;4971532;28;20626;-75
2023/07/05 00:11:52;;;;;;;6.87;2.70;;;;;;;14.98;100.00;101672.53;4974080;28;21076;-75
2023/07/05 00:14:18;;;;;;;5.90;2.57;;;;;;;14.04;100.00;101560.06;4979020;28;20198;-75
2023/07/05 00:16:43;;;;;;;7.07;2.57;;;;;;;14.23;100.00;101591.66;4977133;28;20188;-75
2023/07/05 00:19:09;;;;;;;9.93;2.63;;;;;;;15.08;100.00;101666.72;4976361;28;20229;-75
2023/07/05 00:21:35;;;;;;;6.80;2.97;;;;;;;14.07;100.00;101504.88;4991177;28;20205;-75
2023/07/05 00:24:00;;;;;;;8.83;2.70;;;;;;;13.95;100.00;101505.47;4974978;28;20425;-75
2023/07/05 00:26:26;;;;;;;9.13;3.33;;;;;;;13.99;100.00;101581.41;4976153;28;20190;-75
2023/07/05 00:28:51;;;;;;;6.27;2.67;;;;;;;14.67;100.00;101695.56;4975170;28;20197;-75
2023/07/05 00:31:17;;;;;;;7.00;2.73;;;;;;;14.43;100.00;101688.81;4976089;28;20201;-76
2023/07/05 00:33:42;;;;;;;6.93;2.97;;;;;;;14.65;100.00;101703.03;4973997;28;20216;-76
2023/07/05 00:36:08;;;;;;;11.90;3.33;;;;;;;14.76;100.00;101690.00;4976754;28;20190;-75
2023/07/05 00:38:33;;;;;;;10.03;2.60;;;;;;;14.72;100.00;101708.44;4973641;28;20202;-76
2023/07/05 00:40:59;;;;;;;5.33;2.67;;;;;;;14.36;100.00;101619.69;4940215;28;1166715;-76
2023/07/05 00:43:24;;;;;;;8.37;2.43;;;;;;;14.62;100.00;101670.22;4971462;28;20520;-75
2023/07/05 00:45:56;;;;;;;5.13;2.53;;;;;;;14.84;100.00;101701.44;4972040;28;20213;-76
2023/07/05 00:48:29;;;;;;;6.83;2.63;;;;;;;13.79;100.00;101570.56;4978265;28;20210;-75
2023/07/05 00:50:57;;;;;;;8.77;2.83;;;;;;;14.57;100.00;101654.63;4970858;28;20442;-75
2023/07/05 00:53:23;;;;;;;6.37;2.50;;;;;;;14.55;100.00;101688.25;4970625;28;20508;-75
2023/07/05 00:55:56;;;;;;;8.40;2.70;;;;;;;13.87;100.00;101577.66;4973049;28;20450;-75
2023/07/05 00:58:23;;;;;;;5.53;2.60;;;;;;;14.78;100.00;101691.44;4984967;28;20884;-75
2023/07/05 01:00:48;;;;;;;5.77;2.67;;;;;;;14.55;100.00;101585.69;4972513;28;20491;-75
2023/07/05 01:03:20;;;;;;;8.70;3.10;;;;;;;13.92;100.00;101527.47;4987206;28;20446;-75
2023/07/05 01:05:49;;;;;;;8.63;3.27;;;;;;;13.69;100.00;101449.63;4985525;28;20186;-75
2023/07/05 01:08:15;;;;;;;9.03;3.13;;;;;;;14.13;100.00;101518.38;4967912;28;20480;-75
2023/07/05 01:10:50;;;;;;;5.10;2.53;;;;;;;14.45;100.00;101584.19;4970307;28;23114;-75
2023/07/05 01:13:31;;;;;;;5.83;3.03;;;;;;;14.76;100.00;101653.00;4973746;28;20217;-75
2023/07/05 01:16:06;;;;;;;7.23;2.93;;;;;;;14.09;100.00;101516.28;4970314;28;20504;-75
2023/07/05 01:18:51;;;;;;;10.20;3.30;;;;;;;13.34;100.00;101408.50;4971883;28;20469;-75
2023/07/05 01:21:38;;;;;;;9.50;3.27;;;;;;;14.60;100.00;101605.63;4973416;28;20503;-75
2023/07/05 01:24:19;;;;;;;12.70;3.23;;;;;;;14.69;100.00;101635.94;4974269;28;20434;-75
2023/07/05 01:27:26;;;;;;;8.20;3.37;;;;;;;14.74;100.00;101646.16;4970454;28;20473;-75
2023/07/05 01:29:54;;;;;;;7.53;3.40;;;;;;;14.71;100.00;101651.97;4953005;28;20745;-76
2023/07/05 01:32:31;;;;;;;8.23;3.63;;;;;;;13.92;100.00;101526.63;4970920;28;20491;-75
2023/07/05 01:35:05;;;;;;;7.47;3.00;;;;;;;13.84;100.00;101510.63;4968920;28;20472;-75
2023/07/05 01:37:39;;;;;;;9.03;3.23;;;;;;;14.66;100.00;101645.28;4969677;28;20457;-75
2023/07/05 01:40:19;;;;;;;8.27;3.70;;;;;;;14.79;100.00;101652.59;4968078;28;21009;-75
2023/07/05 01:42:48;;;;;;;7.20;3.73;;;;;;;14.80;100.00;101659.66;4971505;28;20524;-75
2023/07/05 01:45:14;;;;;;;9.03;3.93;;;;;;;14.09;100.00;101557.59;4971666;28;20438;-75
2023/07/05 01:47:57;;;;;;;11.33;4.33;;;;;;;14.79;100.00;101665.28;4967877;28;20465;-75
2023/07/05 01:50:48;;;;;;;5.53;3.33;;;;;;;14.77;100.00;101645.72;4966762;28;21507;-75
2023/07/05 01:53:37;;;;;;;7.90;3.80;;;;;;;14.13;100.00;101541.81;4969114;28;20528;-75
2023/07/05 01:56:10;;;;;;;11.53;4.27;;;;;;;14.61;100.00;101588.41;4970035;28;20539;-75
2023/07/05 01:58:42;;;;;;;8.57;4.23;;;;;;;14.90;100.00;101613.34;4969577;28;20477;-75
2023/07/05 02:01:11;;;;;;;10.50;4.83;;;;;;;13.91;100.00;101482.63;4968622;28;20499;-75
2023/07/05 02:03:38;;;;;;;9.83;4.43;;;;;;;14.80;100.00;101619.13;4967979;28;20527;-75
2023/07/05 02:06:05;;;;;;;9.67;4.23;;;;;;;13.94;100.00;101457.13;4970877;28;20502;-75
2023/07/05 02:08:36;;;;;;;8.70;4.97;;;;;;;14.81;100.00;101614.56;4975920;28;20901;-75
2023/07/05 02:11:02;;;;;;;8.70;4.60;;;;;;;13.75;100.00;101437.19;4973793;28;20452;-75
2023/07/05 02:13:28;;;;;;;11.60;5.10;;;;;;;14.52;100.00;101535.63;4982861;28;20465;-76
2023/07/05 02:15:53;;;;;;;9.10;4.47;;;;;;;14.01;100.00;101455.28;4971374;28;20453;-75
2023/07/05 02:18:19;;;;;;;7.63;4.80;;;;;;;14.94;100.00;101592.13;4970583;28;21004;-75
2023/07/05 02:20:45;;;;;;;10.00;5.00;;;;;;;13.98;100.00;101431.41;4985548;28;20578;-75
2023/07/05 02:23:10;;;;;;;7.17;4.27;;;;;;;14.69;100.00;101553.09;4970856;28;20181;-75
2023/07/05 02:25:36;;;;;;;10.80;4.80;;;;;;;14.02;100.00;101460.44;4972141;28;20662;-75
2023/07/05 02:28:08;;;;;;;9.17;4.47;;;;;;;13.80;100.00;101413.16;4972356;28;20245;-76
2023/07/05 02:30:39;;;;;;;7.97;4.00;;;;;;;14.97;100.00;101565.53;4969220;28;20285;-76
2023/07/05 02:33:05;;;;;;;11.77;5.43;;;;;;;14.85;100.00;101513.19;4969275;28;20545;-76
2023/07/05 02:35:38;;;;;;;7.60;4.80;;;;;;;15.04;100.00;101549.28;4972740;28;20534;-76
2023/07/05 02:38:04;;;;;;;8.90;4.47;;;;;;;14.96;100.00;101536.03;4976587;28;20472;-76
2023/07/05 02:40:30;;;;;;;8.20;4.90;;;;;;;14.13;100.00;101383.47;4971592;28;20485;-75
2023/07/05 02:42:57;;;;;;;9.73;5.70;;;;;;;15.03;100.00;101518.75;4968666;28;20455;-75
2023/07/05 02:45:23;;;;;;;10.53;4.80;;;;;;;15.01;100.00;101504.63;4967033;28;20196;-76
2023/07/05 02:47:48;;;;;;;9.43;5.57;;;;;;;14.59;100.00;101433.06;4968619;28;20468;-76
2023/07/05 02:50:17;;;;;;;7.60;4.97;;;;;;;15.04;100.00;101492.56;4969331;28;20194;-76
2023/07/05 02:52:42;;;;;;;11.23;5.57;;;;;;;14.13;100.00;101334.91;4983225;28;20185;-75
2023/07/05 02:55:08;;;;;;;7.87;5.20;;;;;;;14.95;100.00;101458.72;4974002;28;20456;-75
2023/07/05 02:57:33;;;;;;;11.87;5.33;;;;;;;14.92;100.00;101438.34;4967572;28;20568;-75
2023/07/05 02:59:59;;;;;;;10.17;5.50;;;;;;;13.96;100.00;101287.84;4970341;28;20178;-76
2023/07/05 03:02:24;;;;;;;10.43;6.07;;;;;;;14.60;100.00;101368.03;4972759;28;20220;-76
2023/07/05 03:04:49;;;;;;;13.37;6.70;;;;;;;15.02;100.00;101408.22;4970330;28;20745;-76
2023/07/05 03:07:15;;;;;;;13.10;6.47;;;;;;;14.08;100.00;101256.50;4970428;28;20317;-76
2023/07/05 03:09:41;;;;;;;11.93;6.00;;;;;;;14.29;100.00;101300.41;4967387;28;20194;-76
2023/07/05 03:12:07;;;;;;;14.90;6.63;;;;;;;13.74;100.00;101176.72;4971141;28;20198;-75
2023/07/05 03:14:32;;;;;;;11.27;5.70;;;;;;;13.77;100.00;101181.72;4970393;28;20214;-76
2023/07/05 03:16:57;;;;;;;10.50;6.03;;;;;;;14.67;100.00;101322.16;4974238;28;21048;-76
2023/07/05 03:19:23;;;;;;;10.20;5.47;;;;;;;13.56;100.00;101124.31;4975597;28;20230;-75
2023/07/05 03:21:48;;;;;;;11.40;5.63;;;;;;;14.87;100.00;101328.28;4971556;28;20181;-76
2023/07/05 03:24:14;;;;;;;14.10;6.43;;;;;;;14.02;100.00;101189.91;4973285;28;20204;-76
2023/07/05 03:26:39;;;;;;;7.93;5.73;;;;;;;14.83;100.00;101307.31;4973317;28;20193;-75
2023/07/05 03:29:05;;;;;;;11.80;6.00;;;;;;;13.80;100.00;101146.25;4971043;28;20210;-75
2023/07/05 03:31:31;;;;;;;12.67;6.40;;;;;;;14.99;100.00;101309.53;4970578;28;20196;-75
2023/07/05 03:33:56;;;;;;;9.93;5.60;;;;;;;14.93;100.00;101291.47;4969060;28;20520;-74
2023/07/05 03:36:22;;;;;;;9.07;5.90;;;;;;;14.96;100.00;101292.94;4968923;28;20189;-75
2023/07/05 03:38:51;;;;;;;11.97;5.83;;;;;;;14.59;100.00;101244.91;4970025;28;20197;-75
2023/07/05 03:41:26;;;;;;;11.67;6.37;;;;;;;13.98;100.00;101157.16;4974973;28;20208;-75
2023/07/05 03:43:58;;;;;;;12.17;6.30;;;;;;;14.93;100.00;101286.09;4986541;28;20429;-75
2023/07/05 03:46:24;;;;;;;14.70;7.10;;;;;;;13.99;100.00;101145.31;4970765;28;20448;-76
2023/07/05 03:48:50;;;;;;;10.67;6.70;;;;;;;14.97;100.00;101294.56;4970355;28;20465;-76
2023/07/05 03:51:18;;;;;;;11.70;7.47;;;;;;;13.79;100.00;101101.41;4972284;28;20636;-76
2023/07/05 03:53:51;;;;;;;13.97;6.23;;;;;;;14.46;100.00;101169.38;4969179;28;20484;-75
2023/07/05 03:56:17;;;;;;;12.23;6.93;;;;;;;13.76;100.00;101048.75;4968217;28;20450;-75
2023/07/05 03:58:43;;;;;;;10.23;5.90;;;;;;;14.44;100.00;101118.31;4967837;28;20457;-75
2023/07/05 04:01:14;;;;;;;13.50;7.73;;;;;;;13.45;100.00;100935.50;4968441;28;20185;-76
2023/07/05 04:03:42;;;;;;;12.23;7.23;;;;;;;14.60;100.00;101116.16;4967410;28;20468;-73
2023/07/05 04:06:08;;;;;;;13.73;7.47;;;;;;;14.20;100.00;101024.66;4986115;28;20444;-75
2023/07/05 04:08:33;;;;;;;9.47;7.50;;;;;;;13.90;100.00;100952.44;4969253;28;20562;-75
2023/07/05 04:10:59;;;;;;;10.17;6.50;;;;;;;13.98;100.00;100992.66;4977925;28;20190;-75
2023/07/05 04:13:24;;;;;;;12.70;7.77;;;;;;;14.07;100.00;100987.00;4983494;28;20205;-75
2023/07/05 04:16:15;;;;;;;10.90;7.33;;;;;;;14.85;100.00;101040.56;4971966;28;20714;-75
2023/07/05 04:18:42;;;;;;;11.60;7.23;;;;;;;14.60;100.00;101011.72;4974971;28;20211;-75
2023/07/05 04:21:07;;;;;;;11.20;7.67;;;;;;;14.94;100.00;101023.03;4986610;28;20437;-75
2023/07/05 04:23:33;;;;;;;8.50;6.50;;;;;;;13.22;100.00;100753.69;4968428;28;20473;-75
2023/07/05 04:26:12;;;;;;;13.03;7.70;;;;;;;13.92;100.00;100849.78;4977832;28;20188;-75
2023/07/05 04:28:39;;;;;;;9.67;6.50;;;;;;;14.84;100.00;100993.84;4974016;28;20212;-75
2023/07/05 04:31:10;;;;;;;12.13;7.80;;;;;;;14.92;100.00;100984.59;4972909;28;20451;-75
2023/07/05 04:33:36;;;;;;;12.37;7.13;;;;;;;14.33;100.00;100922.03;4974885;28;20547;-75
2023/07/05 04:36:03;;;;;;;9.37;7.30;;;;;;;14.81;100.00;100961.88;4978416;28;20437;-75
2023/07/05 04:38:28;;;;;;;13.10;7.97;;;;;;;14.43;100.00;100891.84;4986248;28;20826;-74
2023/07/05 04:40:56;;;;;;;9.63;7.43;;;;;;;14.90;100.00;100949.75;4975460;28;20437;-75
2023/07/05 04:43:22;;;;;;;8.53;6.77;;;;;;;14.75;100.00;100922.25;4974933;28;20180;-75
2023/07/05 04:45:49;;;;;;;13.27;7.70;;;;;;;14.85;100.00;100949.56;4974107;28;20807;-74
2023/07/05 04:48:15;;;;;;;13.40;8.37;;;;;;;14.00;100.00;100798.25;4975632;28;20209;-75
2023/07/05 04:50:40;;;;;;;11.10;7.03;;;;;;;13.60;100.00;100758.19;4979599;28;20421;-75
2023/07/05 04:53:05;;;;;;;10.87;7.10;;;;;;;14.89;100.00;100948.06;4975537;28;20213;-75
2023/07/05 04:55:31;;;;;;;12.57;7.60;;;;;;;14.01;100.00;100832.28;4990959;28;20773;-74
2023/07/05 04:58:03;;;;;;;10.23;6.63;;;;;;;14.61;100.00;100896.44;4975490;28;20206;-75
2023/07/05 05:00:29;;;;;;;12.43;7.60;;;;;;;14.70;100.00;100922.13;4970388;28;20185;-75
2023/07/05 05:02:55;;;;;;;9.00;6.50;;;;;;;14.79;100.00;100982.06;4967443;28;20667;-74
2023/07/05 05:05:20;;;;;;;9.67;7.50;;;;;;;14.80;100.00;100971.03;4972081;28;20449;-74
2023/07/05 05:07:46;;;;;;;9.90;7.20;;;;;;;14.30;100.00;100898.19;4973928;28;20217;-74
2023/07/05 05:10:11;;;;;;;10.37;7.73;;;;;;;14.77;100.00;100973.34;4973434;28;20189;-74
2023/07/05 05:12:37;;;;;;;10.13;6.90;;;;;;;14.89;100.00;101012.06;4975116;28;20670;-73
2023/07/05 05:15:02;;;;;;;13.97;7.67;;;;;;;14.94;100.00;101036.53;4973752;28;20232;-73
2023/07/05 05:17:28;;;;;;;11.77;7.20;;;;;;;13.96;100.00;100935.41;4974901;28;20248;-74
2023/07/05 05:19:53;;;;;;;11.23;7.93;;;;;;;14.40;100.00;100970.53;4975166;28;20197;-73
2023/07/05 05:22:18;;;;;;;11.53;7.50;;;;;;;14.05;100.00;100919.78;4988948;28;20638;-74
2023/07/05 05:24:44;;;;;;;12.10;7.33;;;;;;;14.61;100.00;100997.19;4975022;28;20174;-74
2023/07/05 05:27:09;;;;;;;9.40;7.10;;;;;;;14.72;100.00;101038.81;4972686;28;20671;-73
2023/07/05 05:29:35;;;;;;;8.17;6.23;;;;;;;14.80;100.00;101057.44;4974428;28;20210;-73
2023/07/05 05:32:00;;;;;;;10.43;6.27;;;;;;;14.62;100.00;101027.69;4972875;28;20212;-73
2023/07/05 05:34:27;;;;;;;11.70;6.90;;;;;;;15.04;100.00;101085.50;4972112;28;20281;-75
2023/07/05 05:36:52;;;;;;;9.80;6.33;;;;;;;14.32;100.00;100985.16;4974067;28;20276;-74
2023/07/05 05:39:19;;;;;;;8.37;6.17;;;;;;;14.55;100.00;101014.25;4975272;28;20547;-75
2023/07/05 05:41:44;;;;;;;10.23;6.40;;;;;;;14.54;100.00;101001.78;4975881;28;20196;-76
2023/07/05 05:44:09;;;;;;;9.80;5.80;;;;;;;15.21;100.00;101160.56;4989805;28;20817;-74
2023/07/05 05:46:35;;;;;;;8.20;5.87;;;;;;;14.05;100.00;100924.34;4974398;28;20217;-74
2023/07/05 05:49:00;;;;;;;8.20;5.70;;;;;;;14.44;100.00;101033.84;4971937;28;20210;-73
2023/07/05 05:51:26;;;;;;;9.57;5.70;;;;;;;15.19;100.00;101117.56;4971193;28;20186;-74
2023/07/05 05:53:51;;;;;;;5.27;3.80;;;;;;;14.24;100.00;100955.75;4979075;28;20244;-73
2023/07/05 05:56:17;;;;;;;4.40;3.60;;;;;;;14.84;100.00;101117.22;4982057;28;20177;-72
2023/07/05 05:58:42;;;;;;;8.90;4.53;;;;;;;14.85;100.00;101062.19;4972453;28;20210;-72
2023/07/05 06:01:08;;;;;;;5.97;3.57;;;;;;;14.76;100.00;101029.22;4974875;28;21453;-72
2023/07/05 06:03:34;;;;;;;5.33;3.07;;;;;;;14.71;100.00;101003.94;4975730;28;20210;-73
2023/07/05 06:06:00;;;;;;;4.80;3.40;;;;;;;14.63;100.00;100992.38;4983011;28;20797;-73
2023/07/05 06:08:27;;;;;;;4.30;3.17;;;;;;;14.49;100.00;100955.72;4977107;28;20452;-73
2023/07/05 06:10:57;;;;;;;5.27;3.33;;;;;;;14.54;100.00;100952.38;4969190;28;20670;-73
2023/07/05 06:13:22;;;;;;;5.60;2.80;;;;;;;14.38;100.00;100914.09;4975137;28;20700;-73
2023/07/05 06:15:56;;;;;;;5.10;2.73;;;;;;;14.63;100.00;100922.19;4974397;28;20786;-74
2023/07/05 06:18:22;;;;;;;7.27;3.13;;;;;;;13.81;100.00;100791.19;4989729;28;20213;-72
2023/07/05 06:20:47;;;;;;;7.50;3.37;;;;;;;14.76;100.00;100928.50;4973276;28;20457;-73
2023/07/05 06:23:13;;;;;;;5.10;3.40;;;;;;;14.45;100.00;100884.34;4973541;28;20190;-73
2023/07/05 06:25:38;;;;;;;5.30;3.80;;;;;;;12.96;100.00;100641.63;4969518;28;20313;-73
2023/07/05 06:28:04;;;;;;;7.87;4.00;;;;;;;14.69;100.00;100915.06;4973272;28;20229;-73
2023/07/05 06:30:30;;;;;;;7.27;3.80;;;;;;;14.82;100.00;100914.09;4980360;28;20192;-73
2023/07/05 06:32:55;;;;;;;5.03;3.40;;;;;;;14.08;100.00;100810.63;4972495;28;20270;-72
2023/07/05 06:35:21;;;;;;;6.40;3.50;;;;;;;14.77;100.00;100887.75;4973048;28;20666;-71
2023/07/05 06:37:46;;;;;;;4.63;3.97;;;;;;;14.85;100.00;100921.75;4972093;28;20213;-71
2023/07/05 06:40:12;;;;;;;5.27;3.37;;;;;;;14.20;100.00;100796.19;4973588;28;20198;-71
2023/07/05 06:42:38;;;;;;;5.90;3.63;;;;;;;14.45;100.00;100816.88;4978207;28;20214;-72
2023/07/05 06:45:04;;;;;;;5.43;3.70;;;;;;;14.48;100.00;100840.72;4976112;28;20443;-71
2023/07/05 06:47:29;;;;;;;4.83;3.57;;;;;;;14.39;100.00;100785.41;4976535;28;20182;-71
2023/07/05 06:49:55;;;;;;;6.83;4.07;;;;;;;13.94;100.00;100753.28;4972276;28;20487;-72
2023/07/05 06:52:20;;;;;;;5.37;3.70;;;;;;;14.93;100.00;100880.94;4974889;28;20229;-71
2023/07/05 06:54:46;;;;;;;4.77;2.93;;;;;;;14.55;100.00;100816.38;4987350;28;20201;-73
2023/07/05 06:57:12;;;;;;;4.60;2.53;;;;;;;15.10;100.00;100927.91;4974125;28;20846;-72
2023/07/05 06:59:37;;;;;;;5.27;2.87;;;;;;;15.18;100.00;100926.75;4968478;28;25424;-73
2023/07/05 07:02:03;;;;;;;5.13;2.63;;;;;;;15.08;100.00;100921.88;4975010;28;20784;-71
2023/07/05 07:04:29;;;;;;;4.70;2.83;;;;;;;14.88;100.00;100900.53;4971944;28;20432;-72
2023/07/05 07:06:55;;;;;;;6.57;3.30;;;;;;;15.14;100.00;100920.97;4988690;28;20213;-73
2023/07/05 07:09:20;;;;;;;4.87;3.33;;;;;;;15.20;100.00;100937.34;4972317;28;20544;-72
2023/07/05 07:11:46;;;;;;;5.20;2.83;;;;;;;15.29;100.00;100920.59;4972071;28;20239;-72
2023/07/05 07:14:11;;;;;;;5.03;2.83;;;;;;;14.81;100.00;100829.56;4973978;28;20209;-71
2023/07/05 07:16:37;;;;;;;8.70;3.50;;;;;;;15.24;100.00;100904.22;4974985;28;20282;-71
2023/07/05 07:19:02;;;;;;;5.00;2.70;;;;;;;15.39;100.00;100930.88;4971549;28;20210;-71
2023/07/05 07:21:29;;;;;;;3.50;2.30;;;;;;;14.47;100.00;100798.59;4975122;28;20666;-73
2023/07/05 07:23:54;;;;;;;4.27;3.03;;;;;;;15.11;100.00;100885.50;4972513;28;20441;-71
2023/07/05 07:26:22;;;;;;;4.93;2.47;;;;;;;14.29;100.00;100747.31;4975872;28;20444;-71
2023/07/05 07:28:50;;;;;;;5.93;2.87;;;;;;;15.25;100.00;100907.78;4979025;28;20212;-70
2023/07/05 07:31:17;;;;;;;4.40;3.13;;;;;;;15.36;100.00;100893.47;4976642;28;20457;-73
2023/07/05 07:33:44;;;;;;;10.73;3.50;;;;;;;14.22;100.00;100728.53;4978585;28;20565;-70
2023/07/05 07:36:13;;;;;;;7.00;3.20;;;;;;;15.35;100.00;100916.13;4975312;28;20540;-72
2023/07/05 07:38:40;;;;;;;12.67;2.67;;;;;;;14.41;100.00;100765.25;4976135;28;20456;-71
2023/07/05 07:41:21;;;;;;;6.77;2.80;;;;;;;15.49;100.00;100901.41;4976041;28;20502;-72
2023/07/05 07:43:50;;;;;;;3.63;2.90;;;;;;;14.78;100.00;100742.78;4974097;28;21468;-70
2023/07/05 07:46:18;;;;;;;4.73;3.00;;;;;;;15.63;100.00;100930.97;4977997;28;20472;-72
2023/07/05 07:48:48;;;;;;;6.33;3.07;;;;;;;15.70;100.00;100910.06;4965052;28;20462;-70
2023/07/05 07:51:14;;;;;;;3.90;2.47;;;;;;;15.81;100.00;100922.81;4969832;28;20512;-70
2023/07/05 07:53:40;;;;;;;3.90;2.70;;;;;;;15.64;100.00;100909.06;4973587;28;20473;-71
2023/07/05 07:56:13;;;;;;;6.90;3.10;;;;;;;14.14;100.00;100677.56;4967587;28;20588;-70
2023/07/05 07:58:39;;;;;;;6.47;2.90;;;;;;;15.70;100.00;100934.41;4972728;28;20340;-70
2023/07/05 08:01:16;;;;;;;5.70;2.50;;;;;;;15.62;100.00;100945.50;4972340;28;20441;-72
2023/07/05 08:03:42;;;;;;;4.07;2.70;;;;;;;14.52;100.00;100825.75;4991196;28;20438;-73
2023/07/05 08:06:08;;;;;;;5.83;2.97;;;;;;;15.55;100.00;100957.25;4977899;28;20928;-74
2023/07/05 08:08:34;;;;;;;4.80;2.73;;;;;;;15.57;100.00;100936.22;4972320;28;20585;-74
2023/07/05 08:11:04;;;;;;;4.00;2.50;;;;;;;15.38;100.00;100929.19;4970761;28;20193;-73
2023/07/05 08:13:30;;;;;;;7.03;2.80;;;;;;;14.35;100.00;100760.75;4976471;28;20477;-73
2023/07/05 08:15:57;;;;;;;4.10;2.80;;;;;;;15.09;100.00;100850.59;4974969;28;20441;-74
2023/07/05 08:18:22;;;;;;;9.40;2.60;;;;;;;14.30;100.00;100705.81;4969908;28;20492;-74
2023/07/05 08:20:48;;;;;;;4.93;2.80;;;;;;;14.76;100.00;100734.94;4990478;28;20448;-74
2023/07/05 08:23:13;;;;;;;4.97;2.73;;;;;;;14.92;100.00;100731.56;4978067;28;20244;-73
2023/07/05 08:25:42;;;;;;;6.83;2.20;;;;;;;15.93;100.00;100918.22;4969125;28;20203;-74
2023/07/05 08:28:08;;;;;;;9.63;3.10;;;;;;;15.89;100.00;100906.25;4974985;28;20527;-73
2023/07/05 08:30:33;;;;;;;7.47;2.03;;;;;;;15.36;100.00;100888.06;4973849;28;20452;-74
2023/07/05 08:33:02;;;;;;;7.30;2.43;;;;;;;15.34;100.00;100890.19;4986773;28;20205;-73
2023/07/05 08:35:27;;;;;;;4.93;2.33;;;;;;;15.32;100.00;100893.09;4979355;28;20783;-73
2023/07/05 08:37:53;;;;;;;4.60;2.33;;;;;;;15.10;100.00;100814.44;4973174;28;20459;-73
2023/07/05 08:40:18;;;;;;;5.27;2.47;;;;;;;15.27;100.00;100819.19;4991241;28;20202;-73
2023/07/05 08:43:00;;;;;;;16.40;3.10;;;;;;;12.65;100.00;100532.16;4975207;28;20189;-71
2023/07/05 08:45:35;;;;;;;13.13;3.90;;;;;;;11.98;100.00;100532.59;4974952;28;20190;-72
2023/07/05 08:48:04;;;;;;;11.50;3.67;;;;;;;12.91;100.00;100608.34;4974238;28;20465;-72
2023/07/05 08:50:35;;;;;;;12.87;2.70;;;;;;;13.26;100.00;100592.50;4955705;28;20992;-72
2023/07/05 08:53:20;;;;;;;4.90;1.53;;;;;;;13.11;100.00;100595.53;4961832;28;20447;-73
2023/07/05 08:56:13;;;;;;;3.00;1.30;;;;;;;13.17;100.00;100588.41;4954622;28;20468;-73
2023/07/05 08:58:47;;;;;;;5.37;1.40;;;;;;;13.35;100.00;100564.22;4958908;28;20529;-72
2023/07/05 09:01:22;;;;;;;2.97;1.23;;;;;;;12.70;100.00;100448.91;4991810;28;20440;-72
2023/07/05 09:03:48;;;;;;;2.47;0.90;;;;;;;12.33;100.00;100461.44;4976984;28;21261;-73
2023/07/05 09:06:25;;;;;;;2.60;1.17;;;;;;;13.33;100.00;100575.22;4973818;28;20449;-72
2023/07/05 09:09:24;;;;;;;2.07;1.00;;;;;;;12.31;100.00;100477.78;4968715;28;20209;-73
2023/07/05 09:12:14;;;;;;;2.20;1.03;;;;;;;12.29;100.00;100439.50;4974775;28;20875;-74
2023/07/05 09:15:13;;;;;;;4.50;1.20;;;;;;;13.21;100.00;100546.53;4971846;28;20575;-73
2023/07/05 09:17:49;;;;;;;5.33;1.03;;;;;;;13.15;100.00;100525.88;4977890;28;20473;-74
2023/07/05 09:20:29;;;;;;;3.10;0.90;;;;;;;13.03;100.00;100512.31;4974687;28;20441;-73
2023/07/05 09:22:58;;;;;;;1.83;1.13;;;;;;;12.54;100.00;100409.91;4971936;28;20437;-73
2023/07/05 09:25:27;;;;;;;2.70;1.00;;;;;;;11.92;100.00;100301.53;4975254;28;20543;-72
2023/07/05 09:28:21;;;;;;;1.90;1.00;;;;;;;13.09;100.00;100468.34;4975364;28;20552;-73
2023/07/05 09:31:02;;;;;;;2.70;1.20;;;;;;;12.63;100.00;100383.53;4972406;28;20454;-74
2023/07/05 09:33:42;;;;;;;12.43;1.60;;;;;;;12.58;100.00;100396.84;4986809;28;21081;-73
2023/07/05 09:36:19;;;;;;;6.93;0.97;;;;;;;12.08;100.00;100278.63;4990560;28;20445;-73
2023/07/05 09:38:48;;;;;;;2.17;1.07;;;;;;;12.17;100.00;100275.41;4971697;28;20495;-74
2023/07/05 09:41:23;;;;;;;2.03;0.83;;;;;;;11.70;100.00;100204.34;4975935;28;20456;-74
2023/07/05 09:43:49;;;;;;;4.60;0.93;;;;;;;12.37;100.00;100334.34;4976345;28;20461;-73
2023/07/05 09:46:25;;;;;;;6.17;1.40;;;;;;;12.84;100.00;100410.03;4975119;28;20531;-74
2023/07/05 09:48:54;;;;;;;7.60;1.23;;;;;;;11.92;100.00;100194.03;4970958;28;20212;-73
2023/07/05 09:51:21;;;;;;;2.50;1.20;;;;;;;11.83;100.00;100216.81;4973321;28;20460;-72
2023/07/05 09:53:58;;;;;;;1.93;1.17;;;;;;;12.76;100.00;100329.59;4973540;28;20477;-72
2023/07/05 09:56:27;;;;;;;4.17;1.07;;;;;;;12.93;100.00;100313.66;4970702;28;20441;-73
2023/07/05 09:59:20;;;;;;;3.37;0.87;;;;;;;12.83;100.00;100276.50;4968329;28;20465;-74
2023/07/05 10:01:50;;;;;;;4.17;1.17;;;;;;;12.88;100.00;100279.31;4984150;28;21191;-73
2023/07/05 10:04:17;;;;;;;5.60;1.30;;;;;;;11.92;100.00;100098.09;4973591;28;20438;-74
2023/07/05 10:06:46;;;;;;;3.83;1.40;;;;;;;12.06;100.00;100140.91;4968303;28;20529;-73
2023/07/05 10:09:21;;;;;;;2.17;1.00;;;;;;;12.53;100.00;100157.28;4972829;28;21336;-74
2023/07/05 10:11:56;;;;;;;3.53;1.10;;;;;;;12.96;100.00;100294.34;4976800;28;20487;-73
2023/07/05 10:14:27;;;;;;;5.00;1.40;;;;;;;12.82;100.00;100161.81;4971853;28;20511;-74
2023/07/05 10:16:54;;;;;;;5.70;1.90;;;;;;;13.01;100.00;100234.44;4983348;28;20984;-73
2023/07/05 10:19:38;;;;;;;4.50;1.60;;;;;;;12.98;100.00;100221.44;4985930;28;20467;-72
2023/07/05 10:22:13;;;;;;;8.50;2.20;;;;;;;12.17;100.00;100135.59;4988215;28;20453;-71
2023/07/05 10:24:51;;;;;;;10.80;1.60;;;;;;;12.11;100.00;100116.88;4970905;28;20445;-73
2023/07/05 10:27:19;;;;;;;5.53;1.63;;;;;;;13.15;100.00;100217.03;4976978;28;20437;-71
2023/07/05 10:29:47;;;;;;;6.10;1.73;;;;;;;11.94;100.00;100036.84;4989234;28;20717;-70
2023/07/05 10:32:18;;;;;;;3.83;1.10;;;;;;;13.19;100.00;100188.59;4971949;28;20512;-71
2023/07/05 10:34:47;;;;;;;8.00;1.70;;;;;;;12.04;100.00;100024.75;4971062;28;20473;-71
2023/07/05 10:37:34;;;;;;;11.30;2.17;;;;;;;13.33;100.00;100233.13;4974945;28;20453;-71
2023/07/05 10:40:09;;;;;;;6.10;1.83;;;;;;;12.34;100.00;100051.63;4971056;28;20463;-70
2023/07/05 10:42:41;;;;;;;11.27;1.57;;;;;;;13.33;100.00;100206.19;4975628;28;20445;-70
2023/07/05 10:45:15;;;;;;;9.90;1.90;;;;;;;12.58;100.00;100082.94;4975794;28;20444;-70
2023/07/05 10:47:45;;;;;;;4.30;1.67;;;;;;;13.63;100.00;100243.03;4982835;28;20477;-70
2023/07/05 10:50:13;;;;;;;7.10;1.93;;;;;;;13.52;100.00;100206.09;4973357;28;20444;-71
2023/07/05 10:52:54;;;;;;;9.10;1.80;;;;;;;13.60;100.00;100227.31;4975242;28;20868;-72
2023/07/05 10:55:24;;;;;;;7.40;1.50;;;;;;;13.83;100.00;100274.19;4971698;28;20472;-71
2023/07/05 10:58:19;;;;;;;7.70;2.07;;;;;;;13.12;100.00;100172.53;4970645;28;20457;-74
2023/07/05 11:00:51;;;;;;;5.57;1.83;;;;;;;14.28;100.00;100336.44;4976078;28;20548;-72
2023/07/05 11:03:27;;;;;;;4.90;1.10;;;;;;;13.72;100.00;100283.91;4964311;28;20825;-71
2023/07/05 11:05:55;;;;;;;5.63;1.43;;;;;;;14.43;100.00;100441.19;4970289;28;20471;-71
2023/07/05 11:08:31;;;;;;;5.73;1.43;;;;;;;14.48;100.00;100492.59;4967003;28;20481;-72
2023/07/05 11:11:02;;;;;;;4.47;1.63;;;;;;;13.74;100.00;100408.47;4978235;28;20460;-74
2023/07/05 11:13:29;;;;;;;3.30;0.87;;;;;;;14.51;100.00;100547.97;4970074;28;20473;-72
2023/07/05 11:15:56;;;;;;;10.60;1.37;;;;;;;14.15;100.00;100464.28;4988706;28;20469;-73
2023/07/05 11:18:23;;;;;;;3.97;0.80;;;;;;;13.51;100.00;100334.63;4975744;28;20760;-73
2023/07/05 11:20:54;;;;;;;9.63;1.03;;;;;;;15.13;100.00;100588.94;4980261;28;20430;-72
2023/07/05 11:23:50;;;;;;;6.00;1.37;;;;;;;15.13;100.00;100622.16;4977146;28;20844;-72
2023/07/05 11:26:36;;;;;;;4.67;0.83;;;;;;;15.05;100.00;100636.03;4987379;28;20444;-73